Time;durP1;ratioP1;P1;durP2;ratioP2;P2;SDS_P1;SDS_P2;PMS_P1;PMS_P2;Temp;Humidity;BMP_temperature;BMP_pressure;BME280_temperature;BME280_humidity;BME280_pressure;Samples;Min_cycle;Max_cycle;Signal;HPM_P1;HPM_P2
2022/09/15 00:01:25;;;;;;;0.50;0.50;;;;;;;9.67;100.00;97724.81;5072573;28;20044;-85
2022/09/15 00:03:52;;;;;;;0.50;0.50;;;;;;;9.55;100.00;97724.25;5073356;28;20068;-84
2022/09/15 00:06:19;;;;;;;0.50;0.50;;;;;;;9.43;100.00;97719.13;5078978;28;20052;-84
2022/09/15 00:08:46;;;;;;;0.50;0.50;;;;;;;9.34;100.00;97720.72;5070770;28;20051;-85
2022/09/15 00:11:19;;;;;;;0.50;0.50;;;;;;;9.30;100.00;97727.72;5071741;28;20053;-85
2022/09/15 00:13:48;;;;;;;0.50;0.50;;;;;;;9.21;100.00;97732.00;5069600;28;20090;-83
2022/09/15 00:16:16;;;;;;;0.50;0.50;;;;;;;9.14;100.00;97731.47;5071268;28;20503;-85
2022/09/15 00:18:44;;;;;;;0.50;0.50;;;;;;;9.06;100.00;97728.22;5071502;28;20523;-86
2022/09/15 00:21:24;;;;;;;0.50;0.50;;;;;;;9.03;100.00;97725.25;5071161;28;20426;-85
2022/09/15 00:23:51;;;;;;;0.50;0.50;;;;;;;8.97;100.00;97718.25;5071602;28;20052;-85
2022/09/15 00:26:21;;;;;;;0.50;0.50;;;;;;;8.94;100.00;97719.59;5071261;28;20045;-85
2022/09/15 00:28:48;;;;;;;0.50;0.50;;;;;;;8.87;100.00;97721.72;5069716;28;20044;-84
2022/09/15 00:31:18;;;;;;;0.50;0.50;;;;;;;8.88;100.00;97717.94;5071089;28;20044;-85
2022/09/15 00:33:47;;;;;;;0.50;0.50;;;;;;;8.89;100.00;97722.25;5071068;28;20132;-84
2022/09/15 00:36:15;;;;;;;0.50;0.50;;;;;;;8.89;100.00;97720.38;5071831;28;20392;-83
2022/09/15 00:38:42;;;;;;;0.60;0.60;;;;;;;8.86;100.00;97723.59;5071352;28;20049;-85
2022/09/15 00:41:11;;;;;;;0.50;0.50;;;;;;;8.86;100.00;97726.28;5071360;28;20048;-84
2022/09/15 00:43:50;;;;;;;0.50;0.50;;;;;;;8.86;100.00;97723.59;5070214;28;20044;-84
2022/09/15 00:46:43;;;;;;;0.50;0.50;;;;;;;8.79;100.00;97727.63;5071377;28;20048;-85
2022/09/15 00:49:33;;;;;;;0.60;0.60;;;;;;;8.69;100.00;97728.38;5071213;28;20053;-84
2022/09/15 00:52:13;;;;;;;0.50;0.50;;;;;;;8.68;100.00;97722.19;5071254;28;20515;-84
2022/09/15 00:54:50;;;;;;;0.50;0.50;;;;;;;8.67;100.00;97720.56;5070667;28;20587;-83
2022/09/15 00:57:29;;;;;;;0.50;0.50;;;;;;;8.65;100.00;97720.00;5072324;28;20052;-85
2022/09/15 00:59:59;;;;;;;0.50;0.50;;;;;;;8.64;100.00;97725.66;5070328;28;20044;-85
2022/09/15 01:02:29;;;;;;;0.50;0.50;;;;;;;8.64;100.00;97722.97;5070267;28;20056;-84
2022/09/15 01:04:56;;;;;;;0.57;0.57;;;;;;;8.65;100.00;97720.00;5071225;28;20122;-84
2022/09/15 01:07:38;;;;;;;0.50;0.50;;;;;;;8.62;100.00;97717.84;5053893;28;20048;-84
2022/09/15 01:10:10;;;;;;;0.50;0.50;;;;;;;8.63;100.00;97718.66;5071477;28;20047;-84
2022/09/15 01:12:38;;;;;;;0.60;0.60;;;;;;;8.63;100.00;97716.81;5071345;28;20048;-84
2022/09/15 01:15:06;;;;;;;0.50;0.50;;;;;;;8.63;100.00;97719.50;5067831;28;20044;-85
2022/09/15 01:18:05;;;;;;;0.50;0.50;;;;;;;8.67;100.00;97714.38;5055184;28;20045;-85
2022/09/15 01:20:47;;;;;;;0.50;0.50;;;;;;;8.67;100.00;97714.38;5054569;28;20637;-85
2022/09/15 01:23:52;;;;;;;0.55;0.55;;;;;;;8.65;100.00;97711.94;5070588;28;20102;-84
2022/09/15 01:26:43;;;;;;;0.50;0.50;;;;;;;8.62;100.00;97712.47;5071161;28;20088;-86
2022/09/15 01:29:32;;;;;;;0.50;0.50;;;;;;;8.66;100.00;97712.78;5063825;28;20049;-83
2022/09/15 01:35:21;;;;;;;0.50;0.50;;;;;;;8.67;100.00;97704.44;5050790;28;20095;-85
2022/09/15 01:37:53;;;;;;;0.50;0.50;;;;;;;8.70;100.00;97716.53;5052469;28;20103;-85
2022/09/15 01:40:22;;;;;;;0.50;0.50;;;;;;;8.67;100.00;97709.81;5052256;28;20059;-85
2022/09/15 01:42:50;;;;;;;0.50;0.50;;;;;;;8.68;100.00;97710.59;5053174;28;20412;-84
2022/09/15 01:45:21;;;;;;;0.50;0.50;;;;;;;8.70;100.00;97713.03;5036170;28;20052;-83
2022/09/15 01:47:51;;;;;;;0.50;0.50;;;;;;;8.71;100.00;97710.09;5053184;28;20549;-85
2022/09/15 01:50:21;;;;;;;0.50;0.50;;;;;;;8.72;100.00;97708.22;5053369;28;20048;-85
2022/09/15 01:52:51;;;;;;;0.50;0.50;;;;;;;8.72;100.00;97711.72;5054020;28;20419;-84
2022/09/15 01:55:26;;;;;;;0.50;0.50;;;;;;;8.72;100.00;97713.59;5053177;28;20057;-85
2022/09/15 01:57:53;;;;;;;0.50;0.50;;;;;;;8.74;100.00;97709.56;5052604;28;20053;-86
2022/09/15 02:00:20;;;;;;;0.50;0.50;;;;;;;8.77;100.00;97716.31;5054964;28;20045;-86
2022/09/15 02:02:51;;;;;;;0.50;0.50;;;;;;;8.83;100.00;97717.91;5054117;28;20049;-84
2022/09/15 02:05:24;;;;;;;0.50;0.50;;;;;;;8.83;100.00;97710.66;5052970;28;20423;-85
2022/09/15 02:07:58;;;;;;;0.50;0.50;;;;;;;8.78;100.00;97715.22;5052618;28;20432;-85
2022/09/15 02:10:40;;;;;;;0.50;0.50;;;;;;;8.76;100.00;97703.91;5054891;28;20098;-84
2022/09/15 02:13:20;;;;;;;0.50;0.50;;;;;;;8.76;100.00;97709.28;5060014;28;20085;-85
2022/09/15 02:15:52;;;;;;;0.50;0.50;;;;;;;8.73;100.00;97710.63;5052448;28;20053;-85
2022/09/15 02:18:29;;;;;;;0.50;0.50;;;;;;;8.74;100.00;97708.75;5063708;28;20052;-84
2022/09/15 02:21:07;;;;;;;0.50;0.50;;;;;;;8.74;100.00;97708.75;5073593;28;20044;-85
2022/09/15 02:23:39;;;;;;;0.50;0.50;;;;;;;8.75;100.00;97703.09;5072691;28;20044;-85
2022/09/15 02:26:12;;;;;;;0.50;0.50;;;;;;;8.75;100.00;97705.78;5072340;28;20052;-84
2022/09/15 02:28:41;;;;;;;0.50;0.50;;;;;;;8.76;100.00;97704.75;5073598;28;20136;-85
2022/09/15 02:31:12;;;;;;;0.50;0.50;;;;;;;8.77;100.00;97710.91;5074268;28;20306;-84
2022/09/15 02:33:45;;;;;;;0.50;0.50;;;;;;;8.76;100.00;97712.81;5071957;28;20059;-84
2022/09/15 02:36:14;;;;;;;0.50;0.50;;;;;;;8.75;100.00;97705.00;5056030;28;20044;-85
2022/09/15 02:38:48;;;;;;;0.50;0.50;;;;;;;8.77;100.00;97705.53;5072276;28;20060;-86
2022/09/15 02:41:15;;;;;;;0.55;0.55;;;;;;;8.77;100.00;97713.63;5056201;28;20144;-83
2022/09/15 02:43:48;;;;;;;0.50;0.50;;;;;;;8.76;100.00;97717.34;5072213;28;20056;-85
2022/09/15 02:46:17;;;;;;;0.50;0.50;;;;;;;8.77;100.00;97714.41;5073046;28;20055;-85
2022/09/15 02:48:45;;;;;;;0.50;0.50;;;;;;;8.79;100.00;97714.16;5071635;28;20052;-85
2022/09/15 02:51:13;;;;;;;0.50;0.50;;;;;;;8.79;100.00;97711.47;5071531;28;20086;-85
2022/09/15 02:53:41;;;;;;;0.50;0.50;;;;;;;8.80;100.00;97710.38;5071747;28;20544;-83
2022/09/15 02:56:09;;;;;;;0.40;0.40;;;;;;;8.78;100.00;97715.22;5072458;28;20205;-84
2022/09/15 02:58:36;;;;;;;0.50;0.50;;;;;;;8.80;100.00;97723.84;5072703;28;20045;-85
2022/09/15 03:01:04;;;;;;;0.50;0.50;;;;;;;8.81;100.00;97717.38;5072599;28;20151;-85
2022/09/15 03:03:32;;;;;;;0.50;0.50;;;;;;;8.82;100.00;97716.31;5072867;28;20044;-86
2022/09/15 03:06:15;;;;;;;0.50;0.50;;;;;;;8.82;100.00;97719.00;5072711;28;20083;-84
2022/09/15 03:08:42;;;;;;;0.47;0.47;;;;;;;8.83;100.00;97721.41;5073043;28;20169;-86
2022/09/15 03:11:10;;;;;;;0.50;0.50;;;;;;;8.82;100.00;97727.09;5072585;28;20467;-86
2022/09/15 03:13:38;;;;;;;0.50;0.50;;;;;;;8.77;100.00;97722.47;5072042;28;20049;-86
2022/09/15 03:16:12;;;;;;;0.50;0.50;;;;;;;8.75;100.00;97718.44;5072237;28;20053;-85
2022/09/15 03:18:40;;;;;;;0.50;0.50;;;;;;;8.69;100.00;97723.00;5072444;28;20174;-84
2022/09/15 03:21:09;;;;;;;0.50;0.50;;;;;;;8.67;100.00;97717.88;5073393;28;20564;-84
2022/09/15 03:23:36;;;;;;;0.50;0.50;;;;;;;8.67;100.00;97722.44;5072948;28;20056;-86
2022/09/15 03:26:04;;;;;;;0.50;0.50;;;;;;;8.63;100.00;97719.50;5071841;28;20041;-86
2022/09/15 03:28:31;;;;;;;0.50;0.50;;;;;;;8.61;100.00;97718.94;5072242;28;20079;-85
2022/09/15 03:30:58;;;;;;;0.50;0.50;;;;;;;8.61;100.00;97710.88;5053722;28;20071;-85
2022/09/15 03:33:25;;;;;;;0.50;0.50;;;;;;;8.64;100.00;97714.91;5072267;28;20423;-85
2022/09/15 03:35:52;;;;;;;0.50;0.50;;;;;;;8.63;100.00;97713.28;5070356;28;20052;-86
2022/09/15 03:38:19;;;;;;;0.50;0.50;;;;;;;8.62;100.00;97714.38;5071844;28;20135;-85
2022/09/15 03:41:01;;;;;;;0.50;0.50;;;;;;;8.64;100.00;97710.34;5071744;28;20040;-85
2022/09/15 03:43:30;;;;;;;0.50;0.50;;;;;;;8.63;100.00;97714.13;5069671;28;20049;-85
2022/09/15 03:45:57;;;;;;;0.50;0.50;;;;;;;8.62;100.00;97717.06;5051518;28;20508;-85
2022/09/15 03:48:25;;;;;;;0.50;0.50;;;;;;;8.62;100.00;97709.78;5051892;28;20048;-87
2022/09/15 03:50:53;;;;;;;0.50;0.50;;;;;;;8.60;100.00;97713.81;5052234;28;20047;-84
2022/09/15 03:53:20;;;;;;;0.50;0.50;;;;;;;8.60;100.00;97714.63;5051726;28;20053;-85
2022/09/15 03:55:47;;;;;;;0.50;0.50;;;;;;;8.60;100.00;97714.63;5050650;28;20048;-84
2022/09/15 03:58:16;;;;;;;0.50;0.50;;;;;;;8.63;100.00;97716.81;5051351;28;20061;-84
2022/09/15 04:00:44;;;;;;;0.50;0.50;;;;;;;8.64;100.00;97718.41;5056457;28;20041;-84
2022/09/15 04:03:12;;;;;;;0.50;0.50;;;;;;;8.68;100.00;97716.00;5060543;28;20139;-85
2022/09/15 04:05:39;;;;;;;0.50;0.50;;;;;;;8.71;100.00;97711.97;5059297;28;20415;-86
2022/09/15 04:08:07;;;;;;;0.60;0.60;;;;;;;8.70;100.00;97713.03;5054752;28;20104;-82
2022/09/15 04:10:37;;;;;;;0.50;0.50;;;;;;;8.73;100.00;97715.19;5033625;28;20045;-83
2022/09/15 04:13:04;;;;;;;0.50;0.50;;;;;;;8.72;100.00;97718.97;5053080;28;20079;-84
2022/09/15 04:15:31;;;;;;;0.40;0.40;;;;;;;8.71;100.00;97720.03;5058177;28;20077;-84
2022/09/15 04:17:58;;;;;;;0.50;0.50;;;;;;;8.71;100.00;97712.78;5052070;28;20411;-84
2022/09/15 04:20:25;;;;;;;0.50;0.50;;;;;;;8.73;100.00;97723.28;5051819;28;20522;-81
2022/09/15 04:22:52;;;;;;;0.50;0.50;;;;;;;8.72;100.00;97722.47;5051406;28;20140;-85
2022/09/15 04:25:19;;;;;;;0.50;0.50;;;;;;;8.71;100.00;97720.88;5051201;28;20041;-84
2022/09/15 04:27:46;;;;;;;0.50;0.50;;;;;;;8.76;100.00;97717.34;5051040;28;20048;-85
2022/09/15 04:30:13;;;;;;;0.50;0.50;;;;;;;8.78;100.00;97715.22;5049820;28;20053;-84
2022/09/15 04:32:40;;;;;;;0.50;0.50;;;;;;;8.80;100.00;97726.53;5050623;28;20052;-85
2022/09/15 04:35:08;;;;;;;0.50;0.50;;;;;;;8.77;100.00;97724.38;5050702;28;20071;-85
2022/09/15 04:37:36;;;;;;;0.50;0.50;;;;;;;8.75;100.00;97715.75;5049531;28;20071;-85
2022/09/15 04:40:03;;;;;;;0.50;0.50;;;;;;;8.78;100.00;97728.66;5050619;28;20045;-85
2022/09/15 04:42:30;;;;;;;0.50;0.50;;;;;;;8.80;100.00;97724.66;5051253;28;20056;-84
2022/09/15 04:44:58;;;;;;;0.50;0.50;;;;;;;8.80;100.00;97727.34;5051527;28;20049;-84
2022/09/15 04:47:24;;;;;;;0.50;0.50;;;;;;;8.81;100.00;97728.97;5051541;28;20044;-84
2022/09/15 04:49:51;;;;;;;0.50;0.50;;;;;;;8.78;100.00;97723.28;5050979;28;20432;-85
2022/09/15 04:52:18;;;;;;;0.60;0.60;;;;;;;8.79;100.00;97728.41;5051237;28;20049;-85
2022/09/15 04:54:46;;;;;;;0.50;0.50;;;;;;;8.79;100.00;97728.41;5049370;28;20041;-85
2022/09/15 04:57:13;;;;;;;0.50;0.50;;;;;;;8.80;100.00;97729.22;5049814;28;20091;-85
2022/09/15 04:59:40;;;;;;;0.50;0.50;;;;;;;8.79;100.00;97724.94;5051040;28;20148;-85
2022/09/15 05:02:07;;;;;;;0.50;0.50;;;;;;;8.79;100.00;97730.31;5051180;28;20055;-85
2022/09/15 05:04:34;;;;;;;0.50;0.50;;;;;;;8.83;100.00;97744.81;5050046;28;20052;-85
2022/09/15 05:07:01;;;;;;;0.50;0.50;;;;;;;8.84;100.00;97733.81;5050687;28;20057;-86
2022/09/15 05:09:29;;;;;;;0.50;0.50;;;;;;;8.81;100.00;97730.81;5050497;28;20103;-85
2022/09/15 05:11:57;;;;;;;0.50;0.50;;;;;;;8.83;100.00;97734.06;5049979;28;20151;-84
2022/09/15 05:14:24;;;;;;;0.50;0.50;;;;;;;8.84;100.00;97741.09;5060197;28;20590;-84
2022/09/15 05:16:51;;;;;;;0.50;0.50;;;;;;;8.85;100.00;97740.81;5063728;28;20063;-86
2022/09/15 05:19:18;;;;;;;0.50;0.50;;;;;;;8.87;100.00;97735.16;5067328;28;20041;-85
2022/09/15 05:21:45;;;;;;;0.50;0.50;;;;;;;8.91;100.00;97728.16;5060693;28;20044;-85
2022/09/15 05:24:12;;;;;;;0.50;0.50;;;;;;;8.92;100.00;97732.50;5053927;28;20148;-84
2022/09/15 05:26:40;;;;;;;0.50;0.50;;;;;;;8.93;100.00;97731.41;5063688;28;20392;-86
2022/09/15 05:29:07;;;;;;;0.50;0.50;;;;;;;8.87;100.00;97730.59;5059829;28;20102;-85
2022/09/15 05:31:34;;;;;;;0.50;0.50;;;;;;;8.90;100.00;97731.94;5028314;28;20099;-85
2022/09/15 05:34:04;;;;;;;0.60;0.60;;;;;;;8.87;100.00;97735.97;5058492;28;20129;-84
2022/09/15 05:36:32;;;;;;;0.50;0.50;;;;;;;8.87;100.00;97735.97;5062716;28;20136;-85
2022/09/15 05:39:00;;;;;;;0.50;0.50;;;;;;;8.87;100.00;97746.72;5060492;28;20045;-84
2022/09/15 05:41:28;;;;;;;0.50;0.50;;;;;;;8.89;100.00;97733.84;5063268;28;20163;-84
2022/09/15 05:43:56;;;;;;;0.50;0.50;;;;;;;8.93;100.00;97728.72;5062777;28;20434;-85
2022/09/15 05:46:27;;;;;;;0.60;0.60;;;;;;;8.94;100.00;97734.91;5073615;28;20075;-85
2022/09/15 05:48:56;;;;;;;0.50;0.50;;;;;;;8.91;100.00;97730.84;5062265;28;21945;-85
2022/09/15 05:51:24;;;;;;;0.50;0.50;;;;;;;8.89;100.00;97730.34;5062877;28;20053;-86
2022/09/15 05:53:51;;;;;;;0.50;0.50;;;;;;;8.91;100.00;97736.25;5059625;28;20060;-86
2022/09/15 05:56:18;;;;;;;0.50;0.50;;;;;;;8.94;100.00;97738.41;5059570;28;20048;-85
2022/09/15 05:58:46;;;;;;;0.50;0.50;;;;;;;8.94;100.00;97734.91;5061899;28;20426;-84
2022/09/15 06:01:17;;;;;;;0.60;0.60;;;;;;;8.97;100.00;97739.78;5057972;28;20352;-85
2022/09/15 06:03:44;;;;;;;0.50;0.50;;;;;;;9.00;100.00;97748.13;5062128;28;20683;-85
2022/09/15 06:06:15;;;;;;;0.50;0.50;;;;;;;9.00;100.00;97742.72;5066636;28;20052;-84
2022/09/15 06:08:47;;;;;;;0.50;0.50;;;;;;;9.02;100.00;97745.16;5068920;28;20503;-84
2022/09/15 06:11:26;;;;;;;0.50;0.50;;;;;;;9.03;100.00;97744.09;5069824;28;20072;-84
2022/09/15 06:13:53;;;;;;;0.57;0.57;;;;;;;9.03;100.00;97752.16;5064379;28;20052;-88
2022/09/15 06:16:22;;;;;;;0.50;0.50;;;;;;;9.05;100.00;97740.06;5059797;28;20500;-86
2022/09/15 06:18:51;;;;;;;0.60;0.60;;;;;;;9.06;100.00;97749.75;5071542;28;20052;-84
2022/09/15 06:21:27;;;;;;;0.50;0.50;;;;;;;9.06;100.00;97739.00;5066942;28;20587;-85
2022/09/15 06:24:05;;;;;;;0.50;0.50;;;;;;;9.06;100.00;97747.06;5065044;28;20049;-85
2022/09/15 06:26:33;;;;;;;0.50;0.50;;;;;;;9.02;100.00;97751.34;5060471;28;20056;-84
2022/09/15 06:29:03;;;;;;;0.50;0.50;;;;;;;9.07;100.00;97754.06;5064537;28;20079;-85
2022/09/15 06:31:31;;;;;;;0.50;0.50;;;;;;;9.07;100.00;97756.75;5072663;28;20503;-87
2022/09/15 06:33:59;;;;;;;0.50;0.50;;;;;;;9.09;100.00;97751.13;5074431;28;20048;-86
2022/09/15 06:36:28;;;;;;;0.50;0.50;;;;;;;9.08;100.00;97757.56;5065382;28;20045;-86
2022/09/15 06:38:57;;;;;;;0.50;0.50;;;;;;;9.08;100.00;97758.34;5070334;28;20049;-84
2022/09/15 06:41:24;;;;;;;0.50;0.50;;;;;;;9.11;100.00;97759.72;5069016;28;20044;-85
2022/09/15 06:43:51;;;;;;;0.50;0.50;;;;;;;9.10;100.00;97758.91;5061399;28;20392;-86
2022/09/15 06:46:24;;;;;;;0.50;0.50;;;;;;;9.10;100.00;97758.91;5063565;28;20083;-85
2022/09/15 06:48:52;;;;;;;0.50;0.50;;;;;;;9.09;100.00;97760.00;5061653;28;20055;-86
2022/09/15 06:51:27;;;;;;;0.50;0.50;;;;;;;9.13;100.00;97759.47;5058596;28;20640;-86
2022/09/15 06:53:54;;;;;;;0.60;0.60;;;;;;;9.14;100.00;97766.44;5058063;28;20443;-85
2022/09/15 06:56:22;;;;;;;0.60;0.60;;;;;;;9.13;100.00;97759.47;5054451;28;20051;-86
2022/09/15 06:58:49;;;;;;;0.50;0.50;;;;;;;9.13;100.00;97762.16;5055269;28;20055;-86
2022/09/15 07:01:25;;;;;;;0.60;0.60;;;;;;;9.15;100.00;97773.47;5064987;28;20170;-86
2022/09/15 07:03:53;;;;;;;0.50;0.50;;;;;;;9.16;100.00;97770.50;5059537;28;20044;-84
2022/09/15 07:06:20;;;;;;;0.50;0.50;;;;;;;9.14;100.00;97769.97;5050606;28;20459;-87
2022/09/15 07:08:48;;;;;;;0.55;0.55;;;;;;;9.16;100.00;97773.19;5057121;28;20482;-87
2022/09/15 07:11:17;;;;;;;0.50;0.50;;;;;;;9.21;100.00;97769.69;5055142;28;20118;-86
2022/09/15 07:13:45;;;;;;;0.50;0.50;;;;;;;9.22;100.00;97782.09;4709834;28;10000582;-84
2022/09/15 07:16:13;;;;;;;0.60;0.60;;;;;;;9.23;100.00;97781.00;5050727;28;20548;-85
2022/09/15 07:18:40;;;;;;;0.60;0.60;;;;;;;9.21;100.00;97780.47;5055564;28;20045;-86
2022/09/15 07:21:12;;;;;;;0.50;0.50;;;;;;;9.21;100.00;97780.47;5063848;28;20453;-86
2022/09/15 07:23:39;;;;;;;0.50;0.50;;;;;;;9.23;100.00;97778.31;5059817;28;20052;-87
2022/09/15 07:26:21;;;;;;;0.50;0.50;;;;;;;9.25;100.00;97785.06;5061815;28;20044;-85
2022/09/15 07:28:53;;;;;;;0.50;0.50;;;;;;;9.24;100.00;97785.31;5059249;28;20444;-86
2022/09/15 07:31:23;;;;;;;0.60;0.60;;;;;;;9.28;100.00;97789.09;5047297;28;20587;-85
2022/09/15 07:33:50;;;;;;;0.50;0.50;;;;;;;9.36;100.00;97785.88;5053532;28;20052;-88
2022/09/15 07:36:18;;;;;;;0.50;0.50;;;;;;;9.43;100.00;97791.03;5066302;28;20101;-87
2022/09/15 07:38:47;;;;;;;0.50;0.50;;;;;;;9.36;100.00;97795.84;5064769;28;20056;-91
2022/09/15 07:41:21;;;;;;;0.50;0.50;;;;;;;9.32;100.00;97790.19;5052142;28;20057;-87
2022/09/15 07:43:53;;;;;;;0.60;0.60;;;;;;;9.29;100.00;97796.94;5066766;28;20048;-88
2022/09/15 07:46:21;;;;;;;0.50;0.50;;;;;;;9.26;100.00;97792.06;5057402;28;20152;-88
2022/09/15 07:48:51;;;;;;;0.50;0.50;;;;;;;9.30;100.00;97797.72;5064189;28;20180;-89
2022/09/15 07:51:19;;;;;;;0.57;0.57;;;;;;;9.30;100.00;97800.41;5009578;28;20054;-89
2022/09/15 07:53:47;;;;;;;0.50;0.50;;;;;;;9.30;100.00;97793.16;5028540;28;20057;-91
2022/09/15 07:56:17;;;;;;;0.50;0.50;;;;;;;9.28;100.00;97794.50;5015634;28;20076;-91
2022/09/15 07:58:45;;;;;;;0.50;0.50;;;;;;;9.27;100.00;97787.50;5042317;28;20847;-91
2022/09/15 08:01:16;;;;;;;0.60;0.60;;;;;;;9.36;100.00;97793.16;5024550;28;20089;-86
2022/09/15 08:03:45;;;;;;;0.60;0.60;;;;;;;9.42;100.00;97798.31;5037460;28;20619;-87
2022/09/15 08:06:13;;;;;;;0.50;0.50;;;;;;;9.45;100.00;97783.50;5051541;28;20135;-85
2022/09/15 08:08:42;;;;;;;0.52;0.52;;;;;;;9.39;100.00;97790.72;5049143;28;20056;-90
2022/09/15 08:11:13;;;;;;;0.60;0.60;;;;;;;9.37;100.00;97806.38;5029174;28;20063;-88
2022/09/15 08:13:44;;;;;;;;;;;;;;;9.36;100.00;97802.03;5049214;28;20123;-85
2022/09/15 08:16:13;;;;;;;0.60;0.60;;;;;;;9.36;100.00;97802.03;5030654;28;20324;-88
2022/09/15 08:18:42;;;;;;;0.50;0.50;;;;;;;9.33;100.00;97802.56;5050489;28;20052;-88
2022/09/15 08:21:17;;;;;;;0.60;0.60;;;;;;;9.33;100.00;97806.06;5050392;28;20083;-88
2022/09/15 08:23:44;;;;;;;0.60;0.60;;;;;;;9.29;100.00;97799.63;5072884;28;20036;-87
2022/09/15 08:26:11;;;;;;;0.50;0.50;;;;;;;9.26;100.00;97807.41;5073082;28;20503;-89
2022/09/15 08:28:41;;;;;;;0.60;0.60;;;;;;;9.18;100.00;97799.84;5079435;28;20059;-89
2022/09/15 08:31:10;;;;;;;0.60;0.60;;;;;;;9.16;100.00;97792.03;5076154;28;20059;-89
2022/09/15 08:33:37;;;;;;;0.55;0.55;;;;;;;9.15;100.00;97806.56;5077656;28;20124;-88
2022/09/15 08:36:11;;;;;;;0.50;0.50;;;;;;;9.14;100.00;97809.50;5087216;28;20052;-89
2022/09/15 08:38:39;;;;;;;0.50;0.50;;;;;;;9.11;100.00;97803.59;5078860;28;20044;-87
2022/09/15 08:41:22;;;;;;;0.60;0.60;;;;;;;9.16;100.00;97804.69;5056994;28;20052;-89
2022/09/15 08:44:28;;;;;;;0.60;0.60;;;;;;;9.22;100.00;97807.13;5070401;28;20041;-89
2022/09/15 08:46:56;;;;;;;0.60;0.60;;;;;;;9.20;100.00;97803.09;5017753;28;20074;-88
2022/09/15 08:49:38;;;;;;;0.60;0.60;;;;;;;9.21;100.00;97810.88;5020577;28;20579;-89
2022/09/15 08:52:41;;;;;;;0.50;0.50;;;;;;;9.24;100.00;97813.06;5018341;28;20050;-89
2022/09/15 08:55:34;;;;;;;0.60;0.60;;;;;;;9.24;100.00;97813.06;4995394;28;20511;-89
2022/09/15 08:58:15;;;;;;;0.50;0.50;;;;;;;9.22;100.00;97812.50;5000352;28;20117;-90
2022/09/15 09:00:45;;;;;;;0.60;0.60;;;;;;;9.20;100.00;97811.97;5015857;28;20050;-88
2022/09/15 09:04:06;;;;;;;0.50;0.50;;;;;;;9.20;100.00;97813.84;5013519;28;20175;-90
2022/09/15 09:07:05;;;;;;;0.50;0.50;;;;;;;9.16;100.00;97824.31;4958882;28;20177;-90
2022/09/15 09:09:48;;;;;;;0.60;0.60;;;;;;;9.11;100.00;97829.69;4974776;28;20062;-89
2022/09/15 09:12:25;;;;;;;0.60;0.60;;;;;;;9.12;100.00;97823.25;4979637;28;20054;-88
2022/09/15 09:15:07;;;;;;;0.50;0.50;;;;;;;9.15;100.00;97828.09;4977072;28;20218;-89
2022/09/15 09:18:07;;;;;;;0.60;0.60;;;;;;;9.16;100.00;97831.59;4975352;28;20054;-89
2022/09/15 09:21:11;;;;;;;0.52;0.52;;;;;;;9.18;100.00;97832.16;4954314;29;20047;-89
2022/09/15 09:23:51;;;;;;;0.60;0.60;;;;;;;9.27;100.00;97830.56;4917917;29;20052;-89
2022/09/15 09:26:19;;;;;;;0.55;0.55;;;;;;;9.32;100.00;97833.28;4917268;29;20080;-89
2022/09/15 09:28:56;;;;;;;0.50;0.50;;;;;;;9.40;100.00;97832.75;4917356;29;20048;-89
2022/09/15 09:31:24;;;;;;;0.60;0.60;;;;;;;9.43;100.00;97837.59;4916244;29;20571;-90
2022/09/15 09:34:13;;;;;;;0.50;0.50;;;;;;;9.50;100.00;97830.09;4916833;29;20127;-90
2022/09/15 09:36:40;;;;;;;0.50;0.50;;;;;;;9.57;100.00;97835.22;4901213;29;20133;-90
2022/09/15 09:39:12;;;;;;;0.60;0.60;;;;;;;9.68;100.00;97826.06;4909694;28;20052;-88
2022/09/15 09:41:40;;;;;;;0.60;0.60;;;;;;;9.76;100.00;97825.53;4979575;28;20470;-89
2022/09/15 09:44:12;;;;;;;0.50;0.50;;;;;;;9.82;99.75;97830.94;4978288;28;20057;-89
2022/09/15 09:46:40;;;;;;;0.50;0.50;;;;;;;9.86;99.37;97835.53;4980118;28;20415;-90
2022/09/15 09:49:11;;;;;;;0.50;0.50;;;;;;;9.88;99.48;97830.69;4996237;28;20046;-89
2022/09/15 09:52:01;;;;;;;0.60;0.60;;;;;;;9.94;99.32;97835.00;4996400;28;20054;-89
2022/09/15 09:54:32;;;;;;;0.50;0.50;;;;;;;9.99;99.25;97840.38;4995234;28;20054;-90
2022/09/15 09:57:12;;;;;;;0.50;0.50;;;;;;;10.00;99.14;97833.09;5016636;28;20048;-91
2022/09/15 09:59:40;;;;;;;0.50;0.50;;;;;;;10.03;98.48;97839.88;5076742;28;20247;-90
2022/09/15 10:02:10;;;;;;;0.50;0.50;;;;;;;10.05;98.68;97840.38;5077254;28;20086;-89
2022/09/15 10:04:38;;;;;;;0.60;0.60;;;;;;;10.06;98.54;97842.03;5080924;28;20048;-89
2022/09/15 10:07:06;;;;;;;0.50;0.50;;;;;;;10.03;98.57;97842.56;5077837;28;20384;-90
2022/09/15 10:09:36;;;;;;;0.55;0.55;;;;;;;10.04;98.72;97839.59;5075684;28;20574;-89
2022/09/15 10:12:04;;;;;;;0.60;0.60;;;;;;;10.09;99.10;97838.78;5075565;28;20050;-90
2022/09/15 10:14:36;;;;;;;0.50;0.50;;;;;;;10.05;99.27;97851.16;5074884;28;20454;-89
2022/09/15 10:17:11;;;;;;;0.50;0.50;;;;;;;10.05;99.43;97852.00;5073849;28;20048;-90
2022/09/15 10:19:41;;;;;;;0.60;0.60;;;;;;;10.07;99.63;97851.72;5073727;28;20044;-90
2022/09/15 10:22:09;;;;;;;0.50;0.50;;;;;;;10.11;99.49;97850.09;5075620;28;20049;-92
2022/09/15 10:24:38;;;;;;;0.57;0.57;;;;;;;10.13;99.75;97851.44;5059355;28;20466;-90
2022/09/15 10:27:27;;;;;;;0.50;0.50;;;;;;;10.09;99.59;97852.25;5064273;28;20078;-89
2022/09/15 10:29:54;;;;;;;0.50;0.50;;;;;;;10.13;99.76;97850.66;5019056;28;20218;-89
2022/09/15 10:32:24;;;;;;;0.50;0.50;;;;;;;10.16;99.32;97852.81;5016930;28;20053;-89
2022/09/15 10:35:11;;;;;;;0.50;0.50;;;;;;;10.13;98.80;97859.53;5014925;28;20590;-88
2022/09/15 10:37:56;;;;;;;0.60;0.60;;;;;;;10.14;98.35;97855.75;5015052;28;20077;-89
2022/09/15 10:40:51;;;;;;;0.50;0.50;;;;;;;10.17;98.20;97860.59;5011989;28;20117;-89
2022/09/15 10:44:09;;;;;;;0.60;0.60;;;;;;;10.20;97.76;97853.84;4996803;28;20065;-90
2022/09/15 10:46:57;;;;;;;0.60;0.60;;;;;;;10.25;97.82;97856.56;5012398;28;20460;-90
2022/09/15 10:49:47;;;;;;;0.50;0.50;;;;;;;10.20;97.07;97864.66;5013082;28;20089;-90
2022/09/15 10:52:34;;;;;;;0.50;0.50;;;;;;;10.16;97.43;97863.59;5012265;28;20065;-90
2022/09/15 10:55:24;;;;;;;0.50;0.50;;;;;;;10.15;97.25;97878.97;5019594;28;20073;-89
2022/09/15 10:58:23;;;;;;;0.50;0.50;;;;;;;10.09;96.56;97871.13;5012693;28;20456;-90
2022/09/15 11:01:24;;;;;;;0.60;0.60;;;;;;;10.10;96.85;97872.72;5014200;28;20536;-90
2022/09/15 11:04:12;;;;;;;0.50;0.50;;;;;;;10.17;96.93;97870.59;4985932;28;20124;-88
2022/09/15 11:07:04;;;;;;;0.60;0.60;;;;;;;10.18;96.38;97877.59;5044609;28;20147;-89
2022/09/15 11:09:39;;;;;;;0.50;0.50;;;;;;;10.24;96.13;97873.81;5078729;28;20080;-90
2022/09/15 11:12:48;;;;;;;0.60;0.60;;;;;;;10.35;95.39;97878.16;5072577;28;20048;-90
2022/09/15 11:15:29;;;;;;;0.50;0.50;;;;;;;10.43;95.11;97871.41;5074396;28;20071;-89
2022/09/15 11:18:19;;;;;;;0.60;0.60;;;;;;;10.44;94.28;97881.13;5073493;28;20055;-89
2022/09/15 11:20:59;;;;;;;0.60;0.60;;;;;;;10.44;94.62;97880.34;5032237;28;20540;-90
2022/09/15 11:23:37;;;;;;;0.60;0.60;;;;;;;10.49;94.99;97883.81;5031482;28;20145;-91
2022/09/15 11:26:20;;;;;;;0.50;0.50;;;;;;;10.54;94.73;97891.91;5031150;28;20045;-90
2022/09/15 11:28:51;;;;;;;0.57;0.57;;;;;;;10.63;94.74;97889.47;5032389;28;20143;-86
2022/09/15 11:31:29;;;;;;;0.60;0.60;;;;;;;10.71;94.71;97897.03;5015823;28;20058;-89
2022/09/15 11:34:03;;;;;;;0.60;0.60;;;;;;;10.80;94.28;97892.69;5031069;28;20053;-91
2022/09/15 11:36:50;;;;;;;0.60;0.60;;;;;;;10.95;93.40;97891.03;5023613;28;20577;-90
2022/09/15 11:39:25;;;;;;;0.50;0.50;;;;;;;10.90;92.94;97886.47;5017300;28;20148;-91
2022/09/15 11:42:06;;;;;;;0.50;0.50;;;;;;;10.94;92.86;97890.25;5027848;28;20165;-89
2022/09/15 11:44:36;;;;;;;0.50;0.50;;;;;;;11.03;93.01;97890.47;5028106;28;20050;-90
2022/09/15 11:47:23;;;;;;;0.50;0.50;;;;;;;11.06;92.47;97889.91;5020492;28;20054;-88
2022/09/15 11:50:06;;;;;;;0.57;0.57;;;;;;;11.04;92.43;97889.41;5029490;28;20050;-88
2022/09/15 11:52:57;;;;;;;0.50;0.50;;;;;;;11.03;92.34;97888.56;5014001;28;20193;-88
2022/09/15 11:55:59;;;;;;;0.60;0.60;;;;;;;11.01;90.66;97895.31;5025959;28;20456;-87
2022/09/15 11:58:33;;;;;;;0.52;0.52;;;;;;;11.11;90.03;97897.19;5038452;28;20467;-89
2022/09/15 12:01:00;;;;;;;0.60;0.60;;;;;;;11.05;88.84;97891.81;5064117;28;20044;-89
2022/09/15 12:04:01;;;;;;;0.50;0.50;;;;;;;11.03;88.31;97903.97;5064826;28;20419;-89
2022/09/15 12:06:33;;;;;;;0.60;0.60;;;;;;;10.95;88.28;97897.25;5059933;28;20314;-89